createdAt,value
2023-05-07T00:00:44.842Z,50.875355
2023-05-07T00:01:44.846Z,50.875328
2023-05-07T00:02:44.852Z,50.875328
2023-05-07T00:03:45.004Z,50.875328
2023-05-07T00:04:44.817Z,50.875328
2023-05-07T00:05:44.804Z,50.875328
2023-05-07T00:06:44.760Z,50.875553
2023-05-07T00:07:44.748Z,50.875183
2023-05-07T00:08:44.762Z,50.875343
2023-05-07T00:09:44.735Z,50.875614
2023-05-07T00:10:44.711Z,50.875675
2023-05-07T00:11:44.796Z,50.875477
2023-05-07T00:12:44.737Z,50.875420
2023-05-07T00:13:44.697Z,50.875389
2023-05-07T00:14:44.700Z,50.875298
2023-05-07T00:15:44.684Z,50.875175
2023-05-07T00:16:44.719Z,50.875271
2023-05-07T00:17:44.738Z,50.875202
2023-05-07T00:18:44.673Z,50.875340
2023-05-07T00:19:44.650Z,50.875454
2023-05-07T00:20:44.642Z,50.875454
2023-05-07T00:21:44.641Z,50.875370
2023-05-07T00:22:44.605Z,50.875324
2023-05-07T00:23:44.596Z,50.875313
2023-05-07T00:24:44.591Z,50.875217
2023-05-07T00:25:44.582Z,50.875378
2023-05-07T00:26:44.582Z,50.875492
2023-05-07T00:27:44.634Z,50.875389
2023-05-07T00:28:44.555Z,50.875362
2023-05-07T00:29:44.537Z,50.875408
2023-05-07T00:30:44.524Z,50.875374
2023-05-07T00:31:44.585Z,50.875351
2023-05-07T00:32:44.526Z,50.875351
2023-05-07T00:33:44.498Z,50.875404
2023-05-07T00:34:44.525Z,50.875374
2023-05-07T00:35:44.487Z,50.875267
2023-05-07T00:36:44.491Z,50.875252
2023-05-07T00:37:44.483Z,50.875389
2023-05-07T00:38:44.447Z,50.875320
2023-05-07T00:39:44.442Z,50.875576
2023-05-07T00:40:44.435Z,50.875317
2023-05-07T00:41:44.418Z,50.875313
2023-05-07T00:42:44.423Z,50.875450
2023-05-07T00:43:44.470Z,50.875420
2023-05-07T00:44:44.394Z,50.875576
2023-05-07T00:45:44.438Z,50.875439
2023-05-07T00:46:45.374Z,50.875366
2023-05-07T00:47:44.400Z,50.875431
2023-05-07T00:48:44.324Z,50.875446
2023-05-07T00:49:44.338Z,50.875435
2023-05-07T00:50:44.337Z,50.875736
2023-05-07T00:51:44.322Z,50.875401
2023-05-07T00:52:44.302Z,50.875786
2023-05-07T00:53:44.300Z,50.875896
2023-05-07T00:54:44.292Z,50.875553
2023-05-07T00:55:44.299Z,50.875435
2023-05-07T00:56:44.309Z,50.875492
2023-05-07T00:57:44.248Z,50.875393
2023-05-07T00:58:44.348Z,50.875614
2023-05-07T00:59:44.316Z,50.875507
2023-05-07T01:00:44.223Z,50.875534
2023-05-07T01:01:44.253Z,50.875572
2023-05-07T01:02:44.345Z,50.875313
2023-05-07T01:03:44.236Z,50.874977
2023-05-07T01:04:44.267Z,50.875282
2023-05-07T01:05:44.184Z,50.875420
2023-05-07T01:06:44.167Z,50.875290
2023-05-07T01:07:44.177Z,50.875504
2023-05-07T01:08:44.164Z,50.875450
2023-05-07T01:09:44.152Z,50.875401
2023-05-07T01:10:44.131Z,50.875305
2023-05-07T01:11:44.108Z,50.875366
2023-05-07T01:12:44.116Z,50.875443
2023-05-07T01:13:44.112Z,50.875340
2023-05-07T01:14:44.093Z,50.875374
2023-05-07T01:15:44.220Z,50.875309
2023-05-07T01:16:44.094Z,50.875381
2023-05-07T01:17:44.099Z,50.875278
2023-05-07T01:18:44.090Z,50.875397
2023-05-07T01:19:44.061Z,50.875439
2023-05-07T01:20:44.038Z,50.875328
2023-05-07T01:21:44.020Z,50.875366
2023-05-07T01:22:44.050Z,50.875393
2023-05-07T01:23:44.021Z,50.875362
2023-05-07T01:24:43.990Z,50.875328
2023-05-07T01:25:43.989Z,50.875317
2023-05-07T01:26:43.967Z,50.875359
2023-05-07T01:27:43.976Z,50.875328
2023-05-07T01:28:43.970Z,50.875404
2023-05-07T01:29:43.937Z,50.875393
2023-05-07T01:30:43.934Z,50.875320
2023-05-07T01:31:44.225Z,50.875278
2023-05-07T01:32:43.977Z,50.875320
2023-05-07T01:33:43.906Z,50.875328
2023-05-07T01:34:43.888Z,50.875412
2023-05-07T01:35:43.873Z,50.875401
2023-05-07T01:36:43.880Z,50.875366
2023-05-07T01:37:43.874Z,50.875343
2023-05-07T01:38:43.868Z,50.875660
2023-05-07T01:39:43.860Z,50.875454
2023-05-07T01:40:43.826Z,50.875183
2023-05-07T01:41:43.815Z,50.875248
2023-05-07T01:42:43.804Z,50.875443
2023-05-07T01:43:43.778Z,50.875439
2023-05-07T01:44:43.760Z,50.875443
2023-05-07T01:45:43.764Z,50.875343
2023-05-07T01:46:43.797Z,50.875366
2023-05-07T01:47:43.780Z,50.875305
2023-05-07T01:48:43.741Z,50.875328
2023-05-07T01:49:43.721Z,50.875221
2023-05-07T01:50:43.723Z,50.875366
2023-05-07T01:51:43.720Z,50.875320
2023-05-07T01:52:43.744Z,50.875332
2023-05-07T01:53:43.692Z,50.875385
2023-05-07T01:54:43.666Z,50.875416
2023-05-07T01:55:43.702Z,50.875473
2023-05-07T01:56:43.680Z,50.875511
2023-05-07T01:57:43.647Z,50.875446
2023-05-07T01:58:43.642Z,50.875225
2023-05-07T01:59:43.603Z,50.875286
2023-05-07T02:00:43.604Z,50.875294
2023-05-07T02:01:43.651Z,50.875332
2023-05-07T02:02:43.724Z,50.875305
2023-05-07T02:03:43.653Z,50.875313
2023-05-07T02:04:43.559Z,50.875374
2023-05-07T02:05:43.568Z,50.875347
2023-05-07T02:06:43.558Z,50.875374
2023-05-07T02:07:43.526Z,50.875343
2023-05-07T02:08:43.522Z,50.875378
2023-05-07T02:09:43.525Z,50.875412
2023-05-07T02:10:43.543Z,50.875294
2023-05-07T02:11:43.487Z,50.875031
2023-05-07T02:12:43.537Z,50.874962
2023-05-07T02:13:43.483Z,50.875019
2023-05-07T02:14:43.476Z,50.875019
2023-05-07T02:15:43.486Z,50.875019
2023-05-07T02:16:43.471Z,50.875019
2023-05-07T02:17:43.488Z,50.875019
2023-05-07T02:18:43.432Z,50.875309
2023-05-07T02:19:43.494Z,50.875271
2023-05-07T02:20:43.433Z,50.875618
2023-05-07T02:21:43.392Z,50.875530
2023-05-07T02:22:43.398Z,50.875187
2023-05-07T02:23:43.386Z,50.875183
2023-05-07T02:24:43.394Z,50.875183
2023-05-07T02:25:43.369Z,50.875183
2023-05-07T02:26:43.359Z,50.875183
2023-05-07T02:27:43.364Z,50.875183
2023-05-07T02:28:43.334Z,50.875183
2023-05-07T02:29:43.345Z,50.875183
2023-05-07T02:30:43.344Z,50.875183
2023-05-07T02:31:43.311Z,50.875183
2023-05-07T02:32:43.350Z,50.875183
2023-05-07T02:33:43.273Z,50.875183
2023-05-07T02:34:43.287Z,50.875183
2023-05-07T02:35:43.340Z,50.875183
2023-05-07T02:36:43.250Z,50.875183
2023-05-07T02:37:43.251Z,50.875183
2023-05-07T02:38:43.234Z,50.875183
2023-05-07T02:39:43.252Z,50.875183
2023-05-07T02:40:43.237Z,50.875183
2023-05-07T02:41:43.307Z,50.875183
2023-05-07T02:42:43.173Z,50.875183
2023-05-07T02:43:43.196Z,50.875183
2023-05-07T02:44:43.186Z,50.875183
2023-05-07T02:45:43.192Z,50.875183
2023-05-07T02:46:43.131Z,50.875183
2023-05-07T02:47:43.182Z,50.875183
2023-05-07T02:48:43.132Z,50.875183
2023-05-07T02:49:43.627Z,50.875183
2023-05-07T02:50:43.146Z,50.875183
2023-05-07T02:51:43.180Z,50.875183
2023-05-07T02:52:43.111Z,50.875183
2023-05-07T02:53:43.087Z,50.875183
2023-05-07T02:54:43.081Z,50.875183
2023-05-07T02:55:43.051Z,50.875183
2023-05-07T02:56:43.023Z,50.875183
2023-05-07T02:57:43.052Z,50.875183
2023-05-07T02:58:43.032Z,50.875183
2023-05-07T02:59:43.009Z,50.875183
2023-05-07T03:00:42.991Z,50.875183
2023-05-07T03:01:43.060Z,50.875183
2023-05-07T03:02:43.025Z,50.875183
2023-05-07T03:03:42.991Z,50.875183
2023-05-07T03:04:42.971Z,50.875183
2023-05-07T03:05:42.937Z,50.875183
2023-05-07T03:06:43.959Z,50.875183
2023-05-07T03:07:43.002Z,50.875183
2023-05-07T03:08:42.921Z,50.875183
2023-05-07T03:09:42.922Z,50.875183
2023-05-07T03:10:42.947Z,50.875183
2023-05-07T03:11:42.911Z,50.875183
2023-05-07T03:12:42.928Z,50.875183
2023-05-07T03:13:42.875Z,50.875183
2023-05-07T03:14:42.866Z,50.875183
2023-05-07T03:15:42.888Z,50.875183
2023-05-07T03:16:42.872Z,50.875183
2023-05-07T03:17:42.840Z,50.875183
2023-05-07T03:18:42.892Z,50.875183
2023-05-07T03:19:42.811Z,50.875183
2023-05-07T03:20:42.821Z,50.875183
2023-05-07T03:21:42.801Z,50.875183
2023-05-07T03:22:42.792Z,50.875183
2023-05-07T03:23:42.821Z,50.875183
2023-05-07T03:24:43.756Z,50.875183
2023-05-07T03:25:42.751Z,50.875183
2023-05-07T03:26:42.759Z,50.875183
2023-05-07T03:27:42.738Z,50.875183
2023-05-07T03:28:42.738Z,50.875183
2023-05-07T03:29:42.694Z,50.875183
2023-05-07T03:30:42.706Z,50.875183
2023-05-07T03:31:42.707Z,50.875183
2023-05-07T03:32:42.703Z,50.875183
2023-05-07T03:33:42.679Z,50.875183
2023-05-07T03:34:42.658Z,50.875183
2023-05-07T03:35:42.654Z,50.875183
2023-05-07T03:36:42.623Z,50.875183
2023-05-07T03:37:42.602Z,50.875183
2023-05-07T03:38:42.635Z,50.875183
2023-05-07T03:39:42.685Z,50.875183
2023-05-07T03:40:42.598Z,50.875183
2023-05-07T03:41:42.569Z,50.875183
2023-05-07T03:42:42.581Z,50.875183
2023-05-07T03:43:42.558Z,50.875183
2023-05-07T03:44:42.560Z,50.875183
2023-05-07T03:45:42.562Z,50.875183
2023-05-07T03:46:42.567Z,50.875183
2023-05-07T03:47:42.534Z,50.875183
2023-05-07T03:48:42.518Z,50.875183
2023-05-07T03:49:42.514Z,50.875183
2023-05-07T03:50:42.539Z,50.875183
2023-05-07T03:51:42.490Z,50.875183
2023-05-07T03:52:42.514Z,50.875183
2023-05-07T03:53:42.461Z,50.875183
2023-05-07T03:54:42.446Z,50.875183
2023-05-07T03:55:42.508Z,50.875183
2023-05-07T03:56:42.426Z,50.875183
2023-05-07T03:57:42.407Z,50.875183
2023-05-07T03:58:42.413Z,50.875183
2023-05-07T03:59:42.398Z,50.875183
2023-05-07T04:00:42.378Z,50.875183
2023-05-07T04:01:42.451Z,50.875183
2023-05-07T04:02:42.542Z,50.875183
2023-05-07T04:03:42.416Z,50.875183
2023-05-07T04:04:42.345Z,50.875183
2023-05-07T04:05:42.335Z,50.875183
2023-05-07T04:06:42.357Z,50.875183
2023-05-07T04:07:42.317Z,50.875183
2023-05-07T04:08:42.313Z,50.875183
2023-05-07T04:09:42.290Z,50.875183
2023-05-07T04:10:42.279Z,50.875183
2023-05-07T04:11:42.295Z,50.875183
2023-05-07T04:12:42.278Z,50.875183
2023-05-07T04:13:42.264Z,50.875183
2023-05-07T04:14:42.229Z,50.875183
2023-05-07T04:15:42.225Z,50.875183
2023-05-07T04:16:42.283Z,50.875183
2023-05-07T04:17:42.258Z,50.875183
2023-05-07T04:18:42.223Z,50.875183
2023-05-07T04:19:42.200Z,50.875183
2023-05-07T04:20:42.179Z,50.875183
2023-05-07T04:21:42.182Z,50.875183
2023-05-07T04:22:42.177Z,50.875183
2023-05-07T04:23:42.141Z,50.875183
2023-05-07T04:24:42.175Z,50.875183
2023-05-07T04:25:42.123Z,50.875183
2023-05-07T04:26:42.122Z,50.875183
2023-05-07T04:27:42.108Z,50.875183
2023-05-07T04:28:42.123Z,50.875183
2023-05-07T04:29:42.081Z,50.875183
2023-05-07T04:30:42.067Z,50.875183
2023-05-07T04:31:42.146Z,50.875183
2023-05-07T04:32:42.111Z,50.875183
2023-05-07T04:33:42.036Z,50.875183
2023-05-07T04:34:42.023Z,50.875183
2023-05-07T04:35:42.028Z,50.875183
2023-05-07T04:36:42.047Z,50.875183
2023-05-07T04:37:42.001Z,50.875183
2023-05-07T04:38:41.997Z,50.875183
2023-05-07T04:39:41.978Z,50.875183
2023-05-07T04:40:41.976Z,50.875183
2023-05-07T04:41:41.985Z,50.875183
2023-05-07T04:42:41.948Z,50.875183
2023-05-07T04:43:41.944Z,50.875183
2023-05-07T04:44:41.916Z,50.875183
2023-05-07T04:45:41.964Z,50.875183
2023-05-07T04:46:41.913Z,50.875183
2023-05-07T04:47:41.933Z,50.875183
2023-05-07T04:48:41.894Z,50.875183
2023-05-07T04:49:41.862Z,50.875183
2023-05-07T04:50:41.893Z,50.875183
2023-05-07T04:51:41.849Z,50.875183
2023-05-07T04:52:41.845Z,50.875183
2023-05-07T04:53:41.840Z,50.875183
2023-05-07T04:54:41.866Z,50.875183
2023-05-07T04:55:41.818Z,50.875183
2023-05-07T04:56:41.814Z,50.875183
2023-05-07T04:57:41.789Z,50.875183
2023-05-07T04:58:41.779Z,50.875183
2023-05-07T04:59:41.807Z,50.875183
2023-05-07T05:00:41.783Z,50.875183
2023-05-07T05:01:41.781Z,50.875183
2023-05-07T05:02:41.798Z,50.875183
2023-05-07T05:03:41.772Z,50.875183
2023-05-07T05:04:41.749Z,50.875183
2023-05-07T05:05:41.732Z,50.875183
2023-05-07T05:06:41.715Z,50.875183
2023-05-07T05:07:41.788Z,50.875183
2023-05-07T05:08:41.722Z,50.875183
2023-05-07T05:09:41.708Z,50.875183
2023-05-07T05:10:41.670Z,50.875183
2023-05-07T05:11:41.637Z,50.875183
2023-05-07T05:12:41.655Z,50.875183
2023-05-07T05:13:41.658Z,50.875183
2023-05-07T05:14:41.606Z,50.875183
2023-05-07T05:15:41.759Z,50.875183
2023-05-07T05:16:41.756Z,50.875183
2023-05-07T05:17:41.664Z,50.875183
2023-05-07T05:18:41.606Z,50.875183
2023-05-07T05:19:41.573Z,50.875183
2023-05-07T05:20:41.576Z,50.875183
2023-05-07T05:21:41.569Z,50.875183
2023-05-07T05:22:41.591Z,50.875183
2023-05-07T05:23:41.543Z,50.875183
2023-05-07T05:24:41.542Z,50.875183
2023-05-07T05:25:41.522Z,50.875183
2023-05-07T05:26:41.487Z,50.875183
2023-05-07T05:27:41.505Z,50.875183
2023-05-07T05:28:41.477Z,50.875183
2023-05-07T05:29:41.473Z,50.875183
2023-05-07T05:30:41.442Z,50.875183
2023-05-07T05:31:41.521Z,50.875183
2023-05-07T05:32:42.468Z,50.875183
2023-05-07T05:33:41.441Z,50.875183
2023-05-07T05:34:41.458Z,50.875183
2023-05-07T05:35:41.388Z,50.875183
2023-05-07T05:36:41.439Z,50.875183
2023-05-07T05:37:41.406Z,50.875183
2023-05-07T05:38:41.387Z,50.875183
2023-05-07T05:39:41.395Z,50.875183
2023-05-07T05:40:41.352Z,50.875183
2023-05-07T05:41:41.375Z,50.875183
2023-05-07T05:42:41.349Z,50.875183
2023-05-07T05:43:41.313Z,50.875183
2023-05-07T05:44:41.341Z,50.875183
2023-05-07T05:45:41.300Z,50.875183
2023-05-07T05:46:41.356Z,50.875183
2023-05-07T05:47:41.302Z,50.875183
2023-05-07T05:48:41.272Z,50.875183
2023-05-07T05:49:41.260Z,50.875183
2023-05-07T05:50:41.252Z,50.875183
2023-05-07T05:51:41.265Z,50.875183
2023-05-07T05:52:41.219Z,50.875183
2023-05-07T05:53:41.235Z,50.875183
2023-05-07T05:54:41.258Z,50.875183
2023-05-07T05:55:41.279Z,50.875183
2023-05-07T05:56:42.446Z,50.875183
2023-05-07T05:57:41.210Z,50.875183
2023-05-07T05:58:41.241Z,50.875183
2023-05-07T05:59:41.152Z,50.875183
2023-05-07T06:00:41.212Z,50.875183
2023-05-07T06:01:41.178Z,50.875183
2023-05-07T06:02:41.229Z,50.875183
2023-05-07T06:03:41.184Z,50.875183
2023-05-07T06:04:41.147Z,50.875183
2023-05-07T06:05:41.156Z,50.875183
2023-05-07T06:06:41.074Z,50.875183
2023-05-07T06:07:41.080Z,50.875183
2023-05-07T06:08:41.067Z,50.875183
2023-05-07T06:09:41.044Z,50.875183
2023-05-07T06:10:41.067Z,50.875183
2023-05-07T06:11:41.023Z,50.875183
2023-05-07T06:12:43.913Z,50.875183
2023-05-07T06:13:41.045Z,50.875183
2023-05-07T06:14:41.025Z,50.875183
2023-05-07T06:15:41.536Z,50.875183
2023-05-07T06:16:41.090Z,50.875183
2023-05-07T06:17:41.049Z,50.875183
2023-05-07T06:18:40.949Z,50.875183
2023-05-07T06:19:41.126Z,50.875183
2023-05-07T06:20:40.919Z,50.875183
2023-05-07T06:21:40.914Z,50.875183
2023-05-07T06:22:41.860Z,50.875183
2023-05-07T06:23:40.929Z,50.875183
2023-05-07T06:24:40.899Z,50.875183
2023-05-07T06:25:40.867Z,50.875183
2023-05-07T06:26:41.864Z,50.875183
2023-05-07T06:27:40.869Z,50.875183
2023-05-07T06:28:40.882Z,50.875183
2023-05-07T06:29:40.856Z,50.875183
2023-05-07T06:30:40.842Z,50.875183
2023-05-07T06:31:40.852Z,50.875183
2023-05-07T06:32:40.833Z,50.875183
2023-05-07T06:33:40.807Z,50.875183
2023-05-07T06:34:40.779Z,50.875183
2023-05-07T06:35:40.853Z,50.875183
2023-05-07T06:36:40.760Z,50.875183
2023-05-07T06:37:40.753Z,50.875183
2023-05-07T06:38:40.769Z,50.875183
2023-05-07T06:39:40.744Z,50.875183
2023-05-07T06:40:40.740Z,50.875183
2023-05-07T06:41:40.715Z,50.875183
2023-05-07T06:42:40.721Z,50.875183
2023-05-07T06:43:40.693Z,50.875183
2023-05-07T06:44:40.677Z,50.875183
2023-05-07T06:45:40.685Z,50.875183
2023-05-07T06:46:40.788Z,50.875183
2023-05-07T06:47:40.674Z,50.875183
2023-05-07T06:48:40.633Z,50.875183
2023-05-07T06:49:40.610Z,50.875183
2023-05-07T06:50:40.624Z,50.875183
2023-05-07T06:51:40.796Z,50.875183
2023-05-07T06:52:40.596Z,50.875183
2023-05-07T06:53:40.580Z,50.875183
2023-05-07T06:54:40.569Z,50.875183
2023-05-07T06:55:40.554Z,50.875183
2023-05-07T06:56:40.550Z,50.875183
2023-05-07T06:57:40.550Z,50.875183
2023-05-07T06:58:40.515Z,50.875183
2023-05-07T06:59:40.505Z,50.875183
2023-05-07T07:00:40.518Z,50.875183
2023-05-07T07:01:40.618Z,50.875183
2023-05-07T07:02:40.575Z,50.875183
2023-05-07T07:03:40.467Z,50.875183
2023-05-07T07:04:40.474Z,50.875183
2023-05-07T07:05:40.438Z,50.875183
2023-05-07T07:06:40.435Z,50.875183
2023-05-07T07:07:40.431Z,50.875183
2023-05-07T07:08:40.409Z,50.875183
2023-05-07T07:09:40.388Z,50.875183
2023-05-07T07:10:40.402Z,50.875183
2023-05-07T07:11:40.388Z,50.875183
2023-05-07T07:12:40.377Z,50.875183
2023-05-07T07:13:40.355Z,50.875183
2023-05-07T07:14:40.342Z,50.875183
2023-05-07T07:15:40.385Z,50.875183
2023-05-07T07:16:40.338Z,50.875183
2023-05-07T07:17:40.324Z,50.875183
2023-05-07T07:18:40.306Z,50.875183
2023-05-07T07:19:40.272Z,50.875183
2023-05-07T07:20:40.286Z,50.875183
2023-05-07T07:21:40.286Z,50.875183
2023-05-07T07:22:40.260Z,50.875183
2023-05-07T07:23:40.483Z,50.875183
2023-05-07T07:24:40.259Z,50.875183
2023-05-07T07:25:40.258Z,50.875183
2023-05-07T07:26:40.192Z,50.875183
2023-05-07T07:27:40.253Z,50.875183
2023-05-07T07:28:40.194Z,50.875183
2023-05-07T07:29:40.178Z,50.875183
2023-05-07T07:30:40.174Z,50.875183
2023-05-07T07:31:40.168Z,50.875183
2023-05-07T07:32:40.170Z,50.875183
2023-05-07T07:33:40.149Z,50.875183
2023-05-07T07:34:40.126Z,50.875183
2023-05-07T07:35:40.132Z,50.875183
2023-05-07T07:36:46.116Z,50.875183
2023-05-07T07:37:42.095Z,50.875183
2023-05-07T07:38:40.092Z,50.875183
2023-05-07T07:39:40.294Z,50.875183
2023-05-07T07:40:40.064Z,50.875183
2023-05-07T07:41:40.047Z,50.875183
2023-05-07T07:42:40.075Z,50.875183
2023-05-07T07:43:40.032Z,50.875183
2023-05-07T07:44:40.040Z,50.875183
2023-05-07T07:45:41.172Z,50.875183
2023-05-07T07:46:41.025Z,50.875183
2023-05-07T07:47:40.065Z,50.875183
2023-05-07T07:48:39.987Z,50.875183
2023-05-07T07:49:39.976Z,50.875183
2023-05-07T07:50:45.436Z,50.875183
2023-05-07T07:51:41.964Z,50.875183
2023-05-07T07:52:39.948Z,50.875183
2023-05-07T07:53:39.931Z,50.875183
2023-05-07T07:54:39.920Z,50.875183
2023-05-07T07:55:39.966Z,50.875183
2023-05-07T07:56:39.910Z,50.875183
2023-05-07T07:57:39.876Z,50.875183
2023-05-07T07:58:39.875Z,50.875183
2023-05-07T07:59:39.893Z,50.875183
2023-05-07T08:00:39.843Z,50.875183
2023-05-07T08:01:39.949Z,50.875183
2023-05-07T08:02:39.903Z,50.875183
2023-05-07T08:03:40.043Z,50.875183
2023-05-07T08:04:39.926Z,50.875183
2023-05-07T08:05:39.805Z,50.875183
2023-05-07T08:06:39.779Z,50.875183
2023-05-07T08:07:39.801Z,50.875183
2023-05-07T08:08:39.820Z,50.875183
2023-05-07T08:09:39.755Z,50.875183
2023-05-07T08:10:39.751Z,50.875183
2023-05-07T08:11:39.914Z,50.875183
2023-05-07T08:12:39.769Z,50.875183
2023-05-07T08:13:39.737Z,50.875183
2023-05-07T08:14:39.736Z,50.875183
2023-05-07T08:15:39.680Z,50.875183
2023-05-07T08:16:39.709Z,50.875183
2023-05-07T08:17:39.777Z,50.875183
2023-05-07T08:18:39.670Z,50.875183
2023-05-07T08:19:39.667Z,50.875183
2023-05-07T08:20:39.651Z,50.875183
2023-05-07T08:21:39.662Z,50.875183
2023-05-07T08:22:39.668Z,50.875183
2023-05-07T08:23:39.624Z,50.875183
2023-05-07T08:24:39.602Z,50.875183
2023-05-07T08:25:39.593Z,50.875183
2023-05-07T08:26:39.618Z,50.875183
2023-05-07T08:27:39.688Z,50.875183
2023-05-07T08:28:39.560Z,50.875183
2023-05-07T08:29:39.549Z,50.875183
2023-05-07T08:30:39.552Z,50.875183
2023-05-07T08:31:39.537Z,50.875183
2023-05-07T08:32:39.580Z,50.875183
2023-05-07T08:33:39.531Z,50.875183
2023-05-07T08:34:39.512Z,50.875183
2023-05-07T08:35:39.527Z,50.875183
2023-05-07T08:36:39.498Z,50.875183
2023-05-07T08:37:39.480Z,50.875183
2023-05-07T08:38:39.472Z,50.875183
2023-05-07T08:39:39.452Z,50.875183
2023-05-07T08:40:39.439Z,50.875183
2023-05-07T08:41:39.421Z,50.875183
2023-05-07T08:42:39.405Z,50.875183
2023-05-07T08:43:39.418Z,50.875183
2023-05-07T08:44:39.380Z,50.875183
2023-05-07T08:45:39.401Z,50.875183
2023-05-07T08:46:39.445Z,50.875183
2023-05-07T08:47:39.403Z,50.875183
2023-05-07T08:48:39.376Z,50.875183
2023-05-07T08:49:39.346Z,50.875183
2023-05-07T08:50:39.347Z,50.875183
2023-05-07T08:51:39.315Z,50.875183
2023-05-07T08:52:39.305Z,50.875183
2023-05-07T08:53:39.286Z,50.875183
2023-05-07T08:54:39.301Z,50.875183
2023-05-07T08:55:39.302Z,50.875183
2023-05-07T08:56:39.270Z,50.875183
2023-05-07T08:57:40.158Z,50.875183
2023-05-07T08:58:40.241Z,50.875183
2023-05-07T08:59:39.307Z,50.875183
2023-05-07T09:00:39.216Z,50.875183
2023-05-07T09:01:39.258Z,50.875183
2023-05-07T09:02:39.236Z,50.875183
2023-05-07T09:03:39.221Z,50.875183
2023-05-07T09:04:39.181Z,50.875183
2023-05-07T09:05:39.184Z,50.875183
2023-05-07T09:06:39.173Z,50.875183
2023-05-07T09:07:39.170Z,50.875469
2023-05-07T09:08:39.149Z,50.875446
2023-05-07T09:09:39.141Z,50.875401
2023-05-07T09:10:39.103Z,50.875336
2023-05-07T09:11:39.095Z,50.875389
2023-05-07T09:12:39.126Z,50.875572
2023-05-07T09:13:39.074Z,50.875416
2023-05-07T09:14:39.053Z,50.875275
2023-05-07T09:15:39.054Z,50.875412
2023-05-07T09:16:39.143Z,50.875553
2023-05-07T09:17:39.097Z,50.875626
2023-05-07T09:18:39.037Z,50.876060
2023-05-07T09:19:39.021Z,50.875717
2023-05-07T09:20:39.007Z,50.875511
2023-05-07T09:21:38.995Z,50.875717
2023-05-07T09:22:38.979Z,50.875645
2023-05-07T09:23:38.998Z,50.875607
2023-05-07T09:24:38.994Z,50.875652
2023-05-07T09:25:38.955Z,50.875393
2023-05-07T09:26:38.992Z,50.875561
2023-05-07T09:27:38.951Z,50.875805
2023-05-07T09:28:38.942Z,50.875912
2023-05-07T09:29:38.908Z,50.875805
2023-05-07T09:30:38.914Z,50.875641
2023-05-07T09:31:39.078Z,50.875702
2023-05-07T09:32:38.991Z,50.875645
2023-05-07T09:33:38.887Z,50.875282
2023-05-07T09:34:38.869Z,50.875282
2023-05-07T09:35:38.903Z,50.875237
2023-05-07T09:36:38.850Z,50.875286
2023-05-07T09:37:38.855Z,50.875221
2023-05-07T09:38:38.826Z,50.875320
2023-05-07T09:39:38.817Z,50.875313
2023-05-07T09:40:38.816Z,50.875202
2023-05-07T09:41:38.838Z,50.875301
2023-05-07T09:42:38.817Z,50.875256
2023-05-07T09:43:38.804Z,50.875263
2023-05-07T09:44:38.785Z,50.875389
2023-05-07T09:45:38.793Z,50.875340
2023-05-07T09:46:38.779Z,50.875301
2023-05-07T09:47:38.937Z,50.875473
2023-05-07T09:48:38.742Z,50.875328
2023-05-07T09:49:38.744Z,50.875370
2023-05-07T09:50:38.719Z,50.875263
2023-05-07T09:51:38.712Z,50.875225
2023-05-07T09:52:38.692Z,50.875259
2023-05-07T09:53:38.694Z,50.875240
2023-05-07T09:54:38.695Z,50.875229
2023-05-07T09:55:38.688Z,50.875317
2023-05-07T09:56:38.672Z,50.875271
2023-05-07T09:57:38.646Z,50.875278
2023-05-07T09:58:38.633Z,50.875492
2023-05-07T09:59:38.626Z,50.875397
2023-05-07T10:00:38.636Z,50.875366
2023-05-07T10:01:38.688Z,50.875416
2023-05-07T10:02:38.678Z,50.875473
2023-05-07T10:03:39.857Z,50.875423
2023-05-07T10:04:38.571Z,50.875366
2023-05-07T10:05:38.607Z,50.875370
2023-05-07T10:06:38.581Z,50.875340
2023-05-07T10:07:38.571Z,50.875393
2023-05-07T10:08:38.622Z,50.875408
2023-05-07T10:09:38.572Z,50.875427
2023-05-07T10:10:38.597Z,50.875393
2023-05-07T10:11:38.526Z,50.875328
2023-05-07T10:12:38.585Z,50.875458
2023-05-07T10:13:38.496Z,50.875408
2023-05-07T10:14:38.501Z,50.875332
2023-05-07T10:15:38.487Z,50.875484
2023-05-07T10:16:38.473Z,50.875507
2023-05-07T10:17:38.520Z,50.875179
2023-05-07T10:18:38.492Z,50.875313
2023-05-07T10:19:38.569Z,50.875393
2023-05-07T10:20:38.455Z,50.875477
2023-05-07T10:21:38.425Z,50.875500
2023-05-07T10:22:38.403Z,50.875446
2023-05-07T10:23:38.401Z,50.875252
2023-05-07T10:24:38.424Z,50.875309
2023-05-07T10:25:38.391Z,50.875355
2023-05-07T10:26:38.389Z,50.875443
2023-05-07T10:27:38.363Z,50.875530
2023-05-07T10:28:38.470Z,50.875504
2023-05-07T10:29:38.392Z,50.875465
2023-05-07T10:30:38.687Z,50.875443
2023-05-07T10:31:38.383Z,50.875393
2023-05-07T10:32:38.406Z,50.875408
2023-05-07T10:33:38.345Z,50.875477
2023-05-07T10:34:38.319Z,50.875420
2023-05-07T10:35:38.377Z,50.875298
2023-05-07T10:36:38.651Z,50.875423
2023-05-07T10:37:39.278Z,50.875313
2023-05-07T10:38:38.263Z,50.875355
2023-05-07T10:39:38.252Z,50.875340
2023-05-07T10:40:38.230Z,50.875336
2023-05-07T10:41:38.331Z,50.875366
2023-05-07T10:42:38.213Z,50.875359
2023-05-07T10:43:38.215Z,50.875362
2023-05-07T10:44:38.245Z,50.875359
2023-05-07T10:45:38.227Z,50.875401
2023-05-07T10:46:39.014Z,50.875374
2023-05-07T10:47:38.236Z,50.875401
2023-05-07T10:48:38.192Z,50.875401
2023-05-07T10:49:38.165Z,50.875370
2023-05-07T10:50:38.228Z,50.875362
2023-05-07T10:51:38.180Z,50.875366
2023-05-07T10:52:38.165Z,50.875282
2023-05-07T10:53:38.138Z,50.875389
2023-05-07T10:54:38.144Z,50.875374
2023-05-07T10:55:38.120Z,50.875343
2023-05-07T10:56:38.120Z,50.875385
2023-05-07T10:57:38.112Z,50.875378
2023-05-07T10:58:38.070Z,50.875404
2023-05-07T10:59:38.087Z,50.875351
2023-05-07T11:00:39.428Z,50.875340
2023-05-07T11:01:39.173Z,50.875393
2023-05-07T11:02:38.053Z,50.875389
2023-05-07T11:03:38.016Z,50.875393
2023-05-07T11:04:38.036Z,50.875362
2023-05-07T11:05:38.726Z,50.875328
2023-05-07T11:06:38.997Z,50.875328
2023-05-07T11:07:38.068Z,50.875301
2023-05-07T11:08:37.960Z,50.875278
2023-05-07T11:09:37.960Z,50.875248
2023-05-07T11:10:37.938Z,50.875290
2023-05-07T11:11:38.159Z,50.875385
2023-05-07T11:12:38.148Z,50.875469
2023-05-07T11:13:37.935Z,50.875332
2023-05-07T11:14:37.920Z,50.875385
2023-05-07T11:15:37.919Z,50.875340
2023-05-07T11:16:38.178Z,50.875404
2023-05-07T11:17:37.906Z,50.875401
2023-05-07T11:18:37.864Z,50.875370
2023-05-07T11:19:37.846Z,50.875347
2023-05-07T11:20:37.912Z,50.875359
2023-05-07T11:21:37.934Z,50.875446
2023-05-07T11:22:37.816Z,50.875359
2023-05-07T11:23:37.887Z,50.875301
2023-05-07T11:24:37.804Z,50.875340